Time;durP1;ratioP1;P1;durP2;ratioP2;P2;SDS_P1;SDS_P2;PMS_P1;PMS_P2;Temp;Humidity;BMP_temperature;BMP_pressure;BME280_temperature;BME280_humidity;BME280_pressure;Samples;Min_cycle;Max_cycle;Signal;HPM_P1;HPM_P2
2021/11/05 00:01:31;;;;;;;11.50;5.67;;;;;;;;;;6353822;22;20211;-89
2021/11/05 00:04:36;;;;;;;9.70;5.30;;;;;;;;;;6353393;22;20191;-91
2021/11/05 00:07:43;;;;;;;11.00;5.43;;;;;;;;;;6356886;22;20190;-92
2021/11/05 00:10:49;;;;;;;10.23;5.60;;;;;;;;;;6354100;22;20186;-90
2021/11/05 00:13:55;;;;;;;11.20;5.87;;;;;;;;;;6353765;22;20164;-91
2021/11/05 00:17:02;;;;;;;11.07;5.73;;;;;;;;;;6353831;22;20214;-87
2021/11/05 00:20:09;;;;;;;9.37;5.40;;;;;;;;;;6354763;22;20222;-89
2021/11/05 00:23:16;;;;;;;10.27;4.97;;;;;;;;;;6354308;22;20261;-89
2021/11/05 00:26:22;;;;;;;12.87;6.20;;;;;;;;;;6355762;22;20172;-89
2021/11/05 00:29:28;;;;;;;11.90;5.43;;;;;;;;;;6355188;22;20242;-89
2021/11/05 00:32:33;;;;;;;14.93;5.50;;;;;;;;;;6355074;22;20176;-89
2021/11/05 00:35:38;;;;;;;9.60;5.27;;;;;;;;;;6353857;22;20195;-91
2021/11/05 00:38:47;;;;;;;13.37;5.43;;;;;;;;;;6354551;22;20457;-90
2021/11/05 00:41:52;;;;;;;9.53;5.23;;;;;;;;;;6355590;22;20551;-91
2021/11/05 00:44:58;;;;;;;8.87;4.97;;;;;;;;;;6353534;22;20192;-90
2021/11/05 00:48:04;;;;;;;10.43;5.60;;;;;;;;;;6353659;22;20172;-92
2021/11/05 00:51:09;;;;;;;13.03;5.90;;;;;;;;;;6353890;22;20275;-89
2021/11/05 00:54:15;;;;;;;9.13;5.50;;;;;;;;;;6353342;22;20243;-89
2021/11/05 00:57:21;;;;;;;12.00;5.50;;;;;;;;;;6355711;22;20168;-90
2021/11/05 01:00:27;;;;;;;13.20;5.87;;;;;;;;;;6353214;22;20177;-90
2021/11/05 01:03:34;;;;;;;12.80;5.37;;;;;;;;;;6353853;22;20188;-88
2021/11/05 01:06:39;;;;;;;10.00;5.60;;;;;;;;;;6355867;22;20219;-88
2021/11/05 01:09:46;;;;;;;14.93;5.57;;;;;;;;;;6355268;22;20541;-90
2021/11/05 01:12:51;;;;;;;11.40;5.47;;;;;;;;;;6358281;22;20168;-90
2021/11/05 01:16:32;;;;;;;11.70;5.43;;;;;;;;;;6354908;22;20175;-89
2021/11/05 01:19:38;;;;;;;13.87;5.90;;;;;;;;;;6356048;22;20164;-91
2021/11/05 01:22:44;;;;;;;9.43;5.17;;;;;;;;;;6356874;22;20339;-89
2021/11/05 01:25:53;;;;;;;12.53;6.20;;;;;;;;;;6339170;22;20167;-90
2021/11/05 01:28:58;;;;;;;11.93;5.97;;;;;;;;;;6354357;22;20287;-90
2021/11/05 01:32:03;;;;;;;13.00;5.80;;;;;;;;;;6354310;22;20149;-90
2021/11/05 01:35:09;;;;;;;10.80;5.60;;;;;;;;;;6353477;22;20290;-89
2021/11/05 01:38:14;;;;;;;10.23;6.17;;;;;;;;;;6355453;22;20173;-89
2021/11/05 01:41:21;;;;;;;10.37;5.83;;;;;;;;;;6353323;22;20184;-89
2021/11/05 01:44:27;;;;;;;13.60;6.20;;;;;;;;;;6353859;22;20188;-87
2021/11/05 01:47:32;;;;;;;10.53;5.87;;;;;;;;;;6355187;22;20152;-89
2021/11/05 01:50:37;;;;;;;13.63;5.97;;;;;;;;;;6354842;22;20172;-91
2021/11/05 01:53:42;;;;;;;12.00;5.93;;;;;;;;;;6354890;22;20265;-88
2021/11/05 01:56:50;;;;;;;9.93;5.20;;;;;;;;;;6353468;22;20192;-89
2021/11/05 01:59:56;;;;;;;10.73;5.70;;;;;;;;;;6354061;22;20604;-90
2021/11/05 02:03:02;;;;;;;11.07;5.80;;;;;;;;;;6354888;22;20195;-88
2021/11/05 02:06:07;;;;;;;11.53;5.77;;;;;;;;;;6355346;22;20200;-89
2021/11/05 02:09:15;;;;;;;11.17;5.63;;;;;;;;;;6353542;22;20180;-89
2021/11/05 02:12:22;;;;;;;11.93;6.07;;;;;;;;;;6354497;22;20148;-88
2021/11/05 02:15:30;;;;;;;13.87;5.93;;;;;;;;;;6352199;22;20192;-88
2021/11/05 02:18:35;;;;;;;11.63;6.20;;;;;;;;;;6354428;22;20163;-89
2021/11/05 02:21:43;;;;;;;12.87;5.97;;;;;;;;;;6354512;22;20188;-88
2021/11/05 02:24:49;;;;;;;10.47;5.27;;;;;;;;;;6354378;22;20200;-88
2021/11/05 02:27:54;;;;;;;12.03;6.30;;;;;;;;;;6356067;22;20164;-91
2021/11/05 02:30:59;;;;;;;15.77;6.50;;;;;;;;;;6355985;22;20168;-89
2021/11/05 02:34:05;;;;;;;16.13;6.47;;;;;;;;;;6355956;22;20306;-90
2021/11/05 02:37:12;;;;;;;13.47;6.27;;;;;;;;;;6356211;22;20169;-88
2021/11/05 02:40:17;;;;;;;10.57;5.83;;;;;;;;;;6353151;22;20187;-90
2021/11/05 02:43:22;;;;;;;12.37;5.90;;;;;;;;;;6353107;22;20263;-89
2021/11/05 02:46:27;;;;;;;13.07;5.63;;;;;;;;;;6353476;22;20218;-90
2021/11/05 02:49:33;;;;;;;13.87;6.13;;;;;;;;;;6350423;22;20180;-89
2021/11/05 02:52:40;;;;;;;13.37;5.73;;;;;;;;;;6354235;22;20145;-88
2021/11/05 02:55:45;;;;;;;13.33;6.23;;;;;;;;;;6351554;22;20195;-89
2021/11/05 02:58:50;;;;;;;11.20;6.37;;;;;;;;;;6351530;22;20165;-90
2021/11/05 03:01:55;;;;;;;11.57;6.17;;;;;;;;;;6352741;22;20232;-89
2021/11/05 03:05:01;;;;;;;12.53;6.47;;;;;;;;;;6351080;22;20245;-89
2021/11/05 03:08:08;;;;;;;12.70;6.47;;;;;;;;;;6351693;22;20184;-89
2021/11/05 03:11:13;;;;;;;12.43;6.53;;;;;;;;;;6352145;22;20169;-89
2021/11/05 03:14:18;;;;;;;13.63;6.97;;;;;;;;;;6350527;22;20211;-88
2021/11/05 03:17:24;;;;;;;12.33;6.70;;;;;;;;;;6351239;22;20164;-89
2021/11/05 03:20:29;;;;;;;12.87;6.13;;;;;;;;;;6351760;22;20232;-90
2021/11/05 03:23:37;;;;;;;14.17;7.13;;;;;;;;;;6352043;22;20179;-87
2021/11/05 03:26:42;;;;;;;14.93;6.47;;;;;;;;;;6352755;22;20165;-88
2021/11/05 03:29:47;;;;;;;13.03;6.40;;;;;;;;;;6352268;22;20210;-90
2021/11/05 03:32:52;;;;;;;14.53;6.40;;;;;;;;;;6350930;22;20168;-89
2021/11/05 03:35:57;;;;;;;13.80;6.80;;;;;;;;;;6350652;22;20164;-91
2021/11/05 03:39:05;;;;;;;13.27;6.60;;;;;;;;;;6349639;22;20337;-89
2021/11/05 03:42:11;;;;;;;13.13;6.47;;;;;;;;;;6350292;22;20703;-89
2021/11/05 03:45:16;;;;;;;19.27;6.27;;;;;;;;;;6350668;22;20192;-91
2021/11/05 03:48:22;;;;;;;12.53;5.97;;;;;;;;;;6349870;22;20242;-88
2021/11/05 03:51:27;;;;;;;12.43;6.10;;;;;;;;;;6349457;22;20244;-89
2021/11/05 03:54:34;;;;;;;19.17;8.03;;;;;;;;;;6349076;22;20218;-88
2021/11/05 03:57:39;;;;;;;25.47;8.87;;;;;;;;;;6350902;22;20156;-89
2021/11/05 04:00:44;;;;;;;17.50;7.53;;;;;;;;;;6350286;22;20497;-90
2021/11/05 04:03:51;;;;;;;16.80;7.60;;;;;;;;;;6349223;22;20164;-89
2021/11/05 04:06:57;;;;;;;14.60;7.03;;;;;;;;;;6349527;22;20160;-90
2021/11/05 04:10:04;;;;;;;15.43;7.37;;;;;;;;;;6349813;22;20203;-90
2021/11/05 04:13:09;;;;;;;14.60;6.87;;;;;;;;;;6351760;22;20155;-89
2021/11/05 04:16:15;;;;;;;19.40;8.73;;;;;;;;;;6349036;22;20202;-91
2021/11/05 04:19:20;;;;;;;24.50;9.57;;;;;;;;;;6351130;22;20557;-88
2021/11/05 04:22:25;;;;;;;22.10;8.60;;;;;;;;;;6350088;22;20168;-90
2021/11/05 04:25:32;;;;;;;17.03;7.50;;;;;;;;;;6349731;22;20192;-89
2021/11/05 04:28:37;;;;;;;17.03;8.23;;;;;;;;;;6349796;22;20630;-88
2021/11/05 04:31:43;;;;;;;18.70;8.23;;;;;;;;;;6351269;22;20172;-90
2021/11/05 04:34:49;;;;;;;24.27;8.77;;;;;;;;;;6350368;22;20188;-90
2021/11/05 04:37:53;;;;;;;14.17;7.47;;;;;;;;;;6351740;22;20175;-89
2021/11/05 04:41:00;;;;;;;17.73;7.77;;;;;;;;;;6350468;22;20230;-90
2021/11/05 04:44:05;;;;;;;20.80;8.50;;;;;;;;;;6351550;22;20210;-87
2021/11/05 04:47:11;;;;;;;17.27;7.47;;;;;;;;;;6352814;22;20184;-89
2021/11/05 04:50:16;;;;;;;19.37;8.67;;;;;;;;;;6351865;22;20168;-90
2021/11/05 04:53:21;;;;;;;22.90;8.80;;;;;;;;;;6351622;22;20590;-90
2021/11/05 04:56:27;;;;;;;17.33;7.67;;;;;;;;;;6351740;22;20218;-88
2021/11/05 04:59:34;;;;;;;17.50;7.70;;;;;;;;;;6350874;22;20179;-88
2021/11/05 05:03:07;;;;;;;16.90;7.83;;;;;;;;;;6355304;22;20168;-91
2021/11/05 05:06:13;;;;;;;17.17;8.13;;;;;;;;;;6353056;22;20309;-87
2021/11/05 05:09:18;;;;;;;16.33;7.97;;;;;;;;;;6351659;22;20280;-89
2021/11/05 05:12:26;;;;;;;17.10;7.10;;;;;;;;;;6352761;22;20168;-88
2021/11/05 05:15:30;;;;;;;16.23;7.23;;;;;;;;;;6352094;22;20160;-89
2021/11/05 05:18:36;;;;;;;14.70;7.30;;;;;;;;;;6352168;22;20456;-91
2021/11/05 05:21:41;;;;;;;17.73;8.00;;;;;;;;;;6349765;22;20168;-90
2021/11/05 05:24:46;;;;;;;14.93;7.70;;;;;;;;;;6349248;22;20274;-90
2021/11/05 05:27:52;;;;;;;14.20;7.87;;;;;;;;;;6349933;22;20165;-91
2021/11/05 05:30:57;;;;;;;16.03;6.83;;;;;;;;;;6349025;22;20165;-89
2021/11/05 05:34:03;;;;;;;15.47;7.50;;;;;;;;;;6351931;22;20164;-90
2021/11/05 05:37:08;;;;;;;19.70;7.90;;;;;;;;;;6353810;22;20177;-89
2021/11/05 05:40:14;;;;;;;17.40;7.33;;;;;;;;;;6350855;22;20184;-91
2021/11/05 05:43:29;;;;;;;20.87;8.60;;;;;;;;;;6352788;22;20161;-92
2021/11/05 05:46:35;;;;;;;13.50;7.50;;;;;;;;;;6350661;22;20169;-89
2021/11/05 05:49:40;;;;;;;14.33;7.67;;;;;;;;;;6351188;22;20160;-88
2021/11/05 05:52:45;;;;;;;13.60;7.27;;;;;;;;;;6350339;22;20258;-90
2021/11/05 05:55:53;;;;;;;14.13;7.53;;;;;;;;;;6349700;22;20192;-93
2021/11/05 05:58:59;;;;;;;14.40;6.50;;;;;;;;;;6349937;22;20169;-89
2021/11/05 06:02:05;;;;;;;13.77;7.07;;;;;;;;;;6349206;22;20156;-88
2021/11/05 06:05:13;;;;;;;12.43;7.20;;;;;;;;;;6351920;22;20247;-90
2021/11/05 06:08:18;;;;;;;13.43;6.93;;;;;;;;;;6353968;22;20188;-89
2021/11/05 06:11:24;;;;;;;16.40;7.17;;;;;;;;;;6355276;22;20164;-89
2021/11/05 06:14:30;;;;;;;14.00;6.90;;;;;;;;;;6353407;22;20187;-91
2021/11/05 06:17:36;;;;;;;17.33;7.53;;;;;;;;;;6352136;22;20183;-90
2021/11/05 06:20:41;;;;;;;17.30;7.40;;;;;;;;;;6353430;22;20157;-91
2021/11/05 06:23:46;;;;;;;18.17;7.50;;;;;;;;;;6353643;22;20169;-91
2021/11/05 06:26:52;;;;;;;13.47;7.17;;;;;;;;;;6353491;22;20512;-90
2021/11/05 06:29:59;;;;;;;14.27;6.93;;;;;;;;;;6353622;22;20180;-90
2021/11/05 06:33:04;;;;;;;13.73;7.37;;;;;;;;;;6353348;22;20160;-89
2021/11/05 06:36:09;;;;;;;14.70;7.17;;;;;;;;;;6353314;22;20160;-90
2021/11/05 06:39:15;;;;;;;16.93;7.63;;;;;;;;;;6352748;22;20541;-88
2021/11/05 06:42:22;;;;;;;13.97;7.43;;;;;;;;;;6353080;22;20179;-88
2021/11/05 06:45:30;;;;;;;16.17;7.03;;;;;;;;;;6352613;22;20511;-87
2021/11/05 06:48:36;;;;;;;16.73;7.23;;;;;;;;;;6353167;22;20183;-91
2021/11/05 06:51:41;;;;;;;17.83;7.77;;;;;;;;;;6351121;22;20160;-92
2021/11/05 06:54:47;;;;;;;16.47;7.93;;;;;;;;;;6352272;22;20176;-88
2021/11/05 06:57:52;;;;;;;19.10;8.13;;;;;;;;;;6351685;22;20163;-91
2021/11/05 07:00:59;;;;;;;13.57;7.10;;;;;;;;;;6351986;22;20243;-89
2021/11/05 07:04:05;;;;;;;19.23;8.10;;;;;;;;;;6356724;22;20156;-92
2021/11/05 07:07:09;;;;;;;16.43;7.17;;;;;;;;;;6352333;22;20255;-91
2021/11/05 07:10:15;;;;;;;16.00;7.77;;;;;;;;;;6352292;22;20177;-89
2021/11/05 07:13:21;;;;;;;17.07;8.77;;;;;;;;;;6354048;22;20164;-90
2021/11/05 07:16:30;;;;;;;17.03;8.13;;;;;;;;;;6354524;22;20620;-88
2021/11/05 11:26:07;;;;;;;10.68;4.85;;;;;;;;;;6237429;22;20247;-89
2021/11/05 11:29:13;;;;;;;14.88;5.25;;;;;;;;;;6301905;22;20171;-92
2021/11/05 11:32:19;;;;;;;8.25;4.78;;;;;;;;;;6301200;22;20175;-86
2021/11/05 11:35:25;;;;;;;9.10;5.07;;;;;;;;;;6300508;22;20170;-89
2021/11/05 11:38:34;;;;;;;11.48;4.75;;;;;;;;;;6302322;22;20248;-91
2021/11/05 11:41:42;;;;;;;16.45;5.20;;;;;;;;;;6301509;22;20239;-89
2021/11/05 11:44:47;;;;;;;10.18;4.72;;;;;;;;;;6301454;22;20213;-87
2021/11/05 11:47:55;;;;;;;9.13;5.40;;;;;;;;;;6302140;22;20166;-90
2021/11/05 11:51:17;;;;;;;10.27;5.03;;;;;;;;;;6300424;22;20183;-91
2021/11/05 11:54:30;;;;;;;11.50;5.50;;;;;;;;;;6300717;22;20166;-89
2021/11/05 11:57:41;;;;;;;10.18;5.50;;;;;;;;;;6319715;22;20508;-90
2021/11/05 12:00:48;;;;;;;11.43;5.70;;;;;;;;;;6302857;22;20154;-90
2021/11/05 12:03:55;;;;;;;9.20;5.05;;;;;;;;;;6301055;22;20213;-90
2021/11/05 12:07:03;;;;;;;9.30;5.25;;;;;;;;;;6301340;22;20199;-90
2021/11/05 12:10:24;;;;;;;9.07;5.35;;;;;;;;;;6321828;22;20179;-89
2021/11/05 16:35:47;;;;;;;13.90;7.03;;;;;;;;;;6135471;23;20296;-91
2021/11/05 16:39:00;;;;;;;14.17;6.97;;;;;;;;;;6134185;23;20196;-90
2021/11/05 16:42:12;;;;;;;12.07;7.10;;;;;;;;;;6135103;23;20220;-91
2021/11/05 16:45:27;;;;;;;14.83;6.60;;;;;;;;;;6151146;23;20249;-90
2021/11/05 16:48:40;;;;;;;15.93;6.90;;;;;;;;;;6149923;23;20169;-90
2021/11/05 16:51:54;;;;;;;13.93;7.80;;;;;;;;;;6150080;23;20173;-90
2021/11/05 16:55:06;;;;;;;16.67;7.20;;;;;;;;;;6149190;23;20169;-90
2021/11/05 16:58:18;;;;;;;20.50;8.00;;;;;;;;;;6147946;23;20490;-90
2021/11/05 17:01:30;;;;;;;23.03;9.27;;;;;;;;;;6147769;23;20274;-89
2021/11/05 17:04:43;;;;;;;20.60;9.30;;;;;;;;;;6134030;23;20185;-89
2021/11/05 17:07:56;;;;;;;20.77;9.50;;;;;;;;;;6133633;23;20172;-88
2021/11/05 17:11:08;;;;;;;23.37;9.37;;;;;;;;;;6133668;23;20188;-90
2021/11/05 17:14:22;;;;;;;20.50;9.83;;;;;;;;;;6133870;23;20175;-89
2021/11/05 17:17:34;;;;;;;18.73;9.07;;;;;;;;;;6149643;22;20173;-88
2021/11/05 17:20:45;;;;;;;23.57;10.73;;;;;;;;;;6151071;23;20178;-89
2021/11/05 17:24:01;;;;;;;24.33;10.93;;;;;;;;;;6135614;23;20200;-90
2021/11/05 17:27:13;;;;;;;23.00;10.13;;;;;;;;;;6136462;23;20316;-91
2021/11/05 17:30:25;;;;;;;24.83;9.60;;;;;;;;;;6134412;22;20178;-88
2021/11/05 17:33:53;;;;;;;23.73;9.63;;;;;;;;;;6150511;22;20153;-90
2021/11/05 17:37:04;;;;;;;21.83;9.73;;;;;;;;;;6149869;23;20173;-90
2021/11/05 17:40:17;;;;;;;19.03;9.10;;;;;;;;;;6132805;23;20624;-90
2021/11/05 17:43:29;;;;;;;20.07;9.33;;;;;;;;;;6150058;23;20198;-91
2021/11/05 17:46:42;;;;;;;21.63;9.87;;;;;;;;;;6132227;23;20205;-89
2021/11/05 17:49:53;;;;;;;21.13;10.00;;;;;;;;;;6149898;22;20255;-90
2021/11/05 17:53:05;;;;;;;20.33;9.77;;;;;;;;;;6135282;23;20241;-88
2021/11/05 17:56:20;;;;;;;18.10;8.87;;;;;;;;;;6150926;22;20573;-90
2021/11/05 17:59:33;;;;;;;19.40;8.90;;;;;;;;;;6151376;23;20169;-91
2021/11/05 18:02:46;;;;;;;20.17;8.90;;;;;;;;;;6150720;23;20177;-90
2021/11/05 18:05:58;;;;;;;18.77;9.27;;;;;;;;;;6136389;23;20193;-89
2021/11/05 18:09:10;;;;;;;23.33;10.50;;;;;;;;;;6134750;23;20177;-90
2021/11/05 18:12:24;;;;;;;21.20;10.13;;;;;;;;;;6134691;23;20169;-90
2021/11/05 18:15:38;;;;;;;18.57;9.23;;;;;;;;;;6134511;23;20204;-90
2021/11/05 18:18:50;;;;;;;18.40;9.70;;;;;;;;;;6148723;23;20174;-90
2021/11/05 18:22:02;;;;;;;20.70;9.97;;;;;;;;;;6152030;23;20173;-89
2021/11/05 18:25:13;;;;;;;21.67;10.30;;;;;;;;;;6132114;23;20238;-89
2021/11/05 18:28:27;;;;;;;20.83;9.37;;;;;;;;;;6133649;23;20226;-88
2021/11/05 18:31:39;;;;;;;18.17;8.87;;;;;;;;;;6149738;22;20177;-88
2021/11/05 18:34:51;;;;;;;18.97;9.27;;;;;;;;;;6138187;23;20197;-89
2021/11/05 18:38:03;;;;;;;20.47;9.83;;;;;;;;;;6134961;23;20174;-90
2021/11/05 19:17:01;;;;;;;25.60;11.73;;;;;;;;;;6293891;22;20217;-91
2021/11/05 19:20:15;;;;;;;26.43;11.07;;;;;;;;;;6385760;22;20237;-87
2021/11/05 19:23:27;;;;;;;22.17;10.53;;;;;;;;;;6371059;22;20155;-91
2021/11/05 19:26:42;;;;;;;21.73;10.47;;;;;;;;;;6367501;22;20192;-90
2021/11/05 19:29:55;;;;;;;19.30;9.70;;;;;;;;;;6367267;22;20180;-88
2021/11/05 19:33:08;;;;;;;20.23;9.87;;;;;;;;;;6366067;22;20238;-88
2021/11/05 19:36:20;;;;;;;18.90;9.70;;;;;;;;;;6366722;22;20163;-88
2021/11/05 19:39:32;;;;;;;20.97;10.20;;;;;;;;;;6367736;22;20168;-88
2021/11/05 19:42:44;;;;;;;20.00;9.97;;;;;;;;;;6367095;22;20217;-92
2021/11/05 19:45:56;;;;;;;21.33;10.03;;;;;;;;;;6369687;22;20246;-87
2021/11/05 19:49:13;;;;;;;24.30;10.87;;;;;;;;;;6369605;22;20243;-88
2021/11/05 19:52:26;;;;;;;21.60;9.60;;;;;;;;;;6370367;22;20174;-87
2021/11/05 19:55:42;;;;;;;22.60;10.60;;;;;;;;;;6371284;22;20235;-89
2021/11/05 19:58:58;;;;;;;25.37;11.07;;;;;;;;;;6371746;22;20171;-89
2021/11/05 20:02:10;;;;;;;21.07;9.13;;;;;;;;;;6369796;22;20168;-90
2021/11/05 20:05:23;;;;;;;38.73;12.90;;;;;;;;;;6374363;22;20168;-89
2021/11/05 20:08:39;;;;;;;20.00;8.70;;;;;;;;;;6369223;22;20160;-90
2021/11/05 20:11:54;;;;;;;17.33;8.40;;;;;;;;;;6369488;22;20171;-91
2021/11/05 20:15:07;;;;;;;21.33;9.60;;;;;;;;;;6367978;22;20244;-90
2021/11/05 20:18:21;;;;;;;16.50;8.63;;;;;;;;;;6368425;22;20163;-92
2021/11/05 20:21:35;;;;;;;24.17;9.77;;;;;;;;;;6369850;22;20163;-91
2021/11/05 20:24:47;;;;;;;22.33;9.73;;;;;;;;;;6370970;22;20688;-90
2021/11/05 20:27:59;;;;;;;21.20;9.70;;;;;;;;;;6365970;22;20206;-89
2021/11/05 20:31:15;;;;;;;19.97;9.87;;;;;;;;;;6365934;22;20194;-90
2021/11/05 20:34:29;;;;;;;24.83;9.77;;;;;;;;;;6366797;22;20247;-89
2021/11/05 20:37:43;;;;;;;19.27;9.07;;;;;;;;;;6367993;22;20168;-88
2021/11/05 20:40:55;;;;;;;22.30;10.30;;;;;;;;;;6367372;22;20210;-91
2021/11/05 20:44:07;;;;;;;20.27;9.53;;;;;;;;;;6369843;22;20172;-89
2021/11/05 20:47:20;;;;;;;20.03;8.80;;;;;;;;;;6372873;22;20371;-88
2021/11/05 20:50:37;;;;;;;16.97;8.83;;;;;;;;;;6388141;22;20209;-90
2021/11/05 20:53:51;;;;;;;30.80;15.40;;;;;;;;;;6371937;22;20265;-90
2021/11/05 20:57:03;;;;;;;17.70;8.40;;;;;;;;;;6370413;22;20172;-89
2021/11/05 21:00:16;;;;;;;18.27;8.53;;;;;;;;;;6369151;22;20152;-91
2021/11/05 21:03:28;;;;;;;19.03;9.17;;;;;;;;;;6369211;22;20229;-90
2021/11/05 21:06:40;;;;;;;16.90;8.73;;;;;;;;;;6368986;22;20195;-91
2021/11/05 21:09:54;;;;;;;18.27;8.10;;;;;;;;;;6368932;22;20164;-88
2021/11/05 21:13:09;;;;;;;17.30;8.13;;;;;;;;;;6368437;22;20210;-88
2021/11/05 21:16:21;;;;;;;20.27;8.73;;;;;;;;;;6368617;22;20195;-89
2021/11/05 21:19:33;;;;;;;16.43;8.73;;;;;;;;;;6369291;22;20168;-90
2021/11/05 21:22:45;;;;;;;17.80;9.17;;;;;;;;;;6369291;22;20172;-90
2021/11/05 21:25:58;;;;;;;17.57;8.57;;;;;;;;;;6370908;22;20185;-89
2021/11/05 21:29:11;;;;;;;22.27;9.40;;;;;;;;;;6370332;22;20172;-90
2021/11/05 21:32:23;;;;;;;18.50;9.40;;;;;;;;;;6386705;22;20175;-89
2021/11/05 21:35:34;;;;;;;18.57;8.73;;;;;;;;;;6369282;22;20160;-91
2021/11/05 21:38:46;;;;;;;23.17;11.13;;;;;;;;;;6370211;22;20167;-90
2021/11/05 21:41:59;;;;;;;17.70;9.37;;;;;;;;;;6371529;22;20167;-87
2021/11/05 21:45:15;;;;;;;19.13;9.17;;;;;;;;;;6371338;22;20144;-89
2021/11/05 21:48:31;;;;;;;23.53;11.20;;;;;;;;;;6370638;22;20188;-90
2021/11/05 21:51:46;;;;;;;24.27;12.83;;;;;;;;;;6371792;22;20615;-88
2021/11/05 21:54:59;;;;;;;25.33;11.23;;;;;;;;;;6373059;22;20167;-91
2021/11/05 21:58:14;;;;;;;21.87;9.90;;;;;;;;;;6370520;22;20168;-90
2021/11/05 22:01:26;;;;;;;20.70;9.37;;;;;;;;;;6371439;22;20236;-91
2021/11/05 22:04:39;;;;;;;25.60;9.60;;;;;;;;;;6371491;22;20163;-89
2021/11/05 22:07:52;;;;;;;18.50;9.17;;;;;;;;;;6371856;22;20239;-90
2021/11/05 22:11:05;;;;;;;18.73;9.57;;;;;;;;;;6371715;22;20236;-89
2021/11/05 22:14:18;;;;;;;19.33;9.40;;;;;;;;;;6370456;22;20164;-88
2021/11/05 22:17:30;;;;;;;16.97;8.40;;;;;;;;;;6369062;22;20706;-90
2021/11/05 22:20:42;;;;;;;16.77;8.17;;;;;;;;;;6371442;22;20167;-90
2021/11/05 22:23:53;;;;;;;21.47;10.20;;;;;;;;;;6370633;22;20183;-89
2021/11/05 22:27:05;;;;;;;21.87;8.97;;;;;;;;;;6371827;22;20210;-91
2021/11/05 22:30:19;;;;;;;17.27;9.27;;;;;;;;;;6370420;22;20172;-91
2021/11/05 22:33:32;;;;;;;21.23;9.63;;;;;;;;;;6370115;22;20213;-88
2021/11/05 22:36:44;;;;;;;15.20;8.57;;;;;;;;;;6370742;22;20164;-91
2021/11/05 22:39:55;;;;;;;20.60;9.43;;;;;;;;;;6369955;22;20212;-88
2021/11/05 22:43:08;;;;;;;23.27;8.50;;;;;;;;;;6369395;22;20152;-88
2021/11/05 22:46:21;;;;;;;17.10;8.27;;;;;;;;;;6368115;22;20151;-91
2021/11/05 22:49:33;;;;;;;16.33;8.93;;;;;;;;;;6369060;22;20168;-89
2021/11/05 22:52:46;;;;;;;45.60;19.97;;;;;;;;;;6369611;22;20263;-90
2021/11/05 22:56:00;;;;;;;22.23;9.63;;;;;;;;;;6370839;22;20168;-88
2021/11/05 22:59:13;;;;;;;26.23;10.67;;;;;;;;;;6368812;22;20225;-90
2021/11/05 23:02:35;;;;;;;23.47;11.07;;;;;;;;;;6369260;22;20167;-89
2021/11/05 23:05:47;;;;;;;17.53;9.07;;;;;;;;;;6369383;22;20172;-90
2021/11/05 23:08:59;;;;;;;19.27;10.17;;;;;;;;;;6368609;22;20202;-89
2021/11/05 23:12:11;;;;;;;18.23;9.57;;;;;;;;;;6369021;22;20178;-88
2021/11/05 23:15:22;;;;;;;18.63;9.07;;;;;;;;;;6368059;22;20156;-89
2021/11/05 23:18:37;;;;;;;16.67;8.57;;;;;;;;;;6369948;22;20233;-87
2021/11/05 23:21:50;;;;;;;16.33;9.23;;;;;;;;;;6369779;22;20178;-90
2021/11/05 23:25:02;;;;;;;20.20;8.73;;;;;;;;;;6369608;22;20162;-91
2021/11/05 23:28:17;;;;;;;25.50;9.63;;;;;;;;;;6388310;22;20210;-87
2021/11/05 23:31:29;;;;;;;20.70;10.00;;;;;;;;;;6370877;22;20241;-88
2021/11/05 23:34:42;;;;;;;21.23;9.73;;;;;;;;;;6369939;22;20163;-89
2021/11/05 23:37:54;;;;;;;16.70;8.73;;;;;;;;;;6368467;22;20209;-90
2021/11/05 23:41:06;;;;;;;19.13;9.67;;;;;;;;;;6368703;22;20171;-89
2021/11/05 23:44:17;;;;;;;20.17;9.43;;;;;;;;;;6368892;22;20163;-88
2021/11/05 23:47:29;;;;;;;21.77;9.70;;;;;;;;;;6369542;22;20207;-88
2021/11/05 23:50:44;;;;;;;18.37;9.40;;;;;;;;;;6369201;22;20571;-88
2021/11/05 23:53:56;;;;;;;20.03;9.20;;;;;;;;;;6369781;22;20176;-89
2021/11/05 23:57:08;;;;;;;19.70;9.90;;;;;;;;;;6369478;22;20164;-90
